Time;durP1;ratioP1;P1;durP2;ratioP2;P2;SDS_P1;SDS_P2;PMS_P1;PMS_P2;Temp;Humidity;BMP_temperature;BMP_pressure;BME280_temperature;BME280_humidity;BME280_pressure;Samples;Min_cycle;Max_cycle;Signal;HPM_P1;HPM_P2
2024/03/15 00:00:00;;;;;;;;;;;20.50;56.90;;;;;;1504874;78;1932;-77
2024/03/15 00:02:02;;;;;;;;;;;20.50;57.00;;;;;;1499989;78;728;-79
2024/03/15 00:04:04;;;;;;;;;;;20.50;57.00;;;;;;1497798;78;1161;-78
2024/03/15 00:06:06;;;;;;;;;;;20.50;57.10;;;;;;1503083;78;683;-80
2024/03/15 00:08:07;;;;;;;;;;;20.60;57.20;;;;;;1493512;78;659;-77
2024/03/15 00:10:09;;;;;;;;;;;20.50;57.20;;;;;;1500088;78;833;-76
2024/03/15 00:12:11;;;;;;;;;;;20.60;57.20;;;;;;1497032;78;735;-74
2024/03/15 00:14:13;;;;;;;;;;;20.40;57.10;;;;;;1503010;78;1588;-74
2024/03/15 00:16:15;;;;;;;;;;;20.50;57.20;;;;;;1502559;78;735;-75
2024/03/15 00:18:17;;;;;;;;;;;20.50;57.20;;;;;;1496272;78;797;-74
2024/03/15 00:20:20;;;;;;;;;;;20.50;57.20;;;;;;1503377;78;1908;-74
2024/03/15 00:22:23;;;;;;;;;;;20.50;57.20;;;;;;1506901;78;742;-73
2024/03/15 00:24:25;;;;;;;;;;;20.50;57.30;;;;;;1505367;78;1132;-75
2024/03/15 00:26:27;;;;;;;;;;;20.50;57.20;;;;;;1502078;78;818;-78
2024/03/15 00:28:29;;;;;;;;;;;20.50;57.30;;;;;;1497004;78;1453;-78
2024/03/15 00:30:31;;;;;;;;;;;20.50;57.30;;;;;;1491523;78;851;-75
2024/03/15 00:32:32;;;;;;;;;;;20.50;57.30;;;;;;1506212;78;1185;-75
2024/03/15 00:34:34;;;;;;;;;;;20.50;57.40;;;;;;1502367;78;696;-75
2024/03/15 00:36:36;;;;;;;;;;;20.50;57.40;;;;;;1505799;78;799;-77
2024/03/15 00:38:38;;;;;;;;;;;20.50;57.40;;;;;;1503068;78;717;-75
2024/03/15 00:40:40;;;;;;;;;;;20.60;57.40;;;;;;1501625;78;1933;-75
2024/03/15 00:42:42;;;;;;;;;;;20.50;57.40;;;;;;1492533;78;1297;-74
2024/03/15 00:44:44;;;;;;;;;;;20.50;57.40;;;;;;1493608;78;802;-78
2024/03/15 00:46:46;;;;;;;;;;;20.50;57.40;;;;;;1494117;78;838;-75
2024/03/15 00:48:48;;;;;;;;;;;20.50;57.40;;;;;;1494624;78;746;-74
2024/03/15 00:50:50;;;;;;;;;;;20.50;57.50;;;;;;1502847;78;720;-75
2024/03/15 00:52:57;;;;;;;;;;;20.50;57.50;;;;;;1490566;78;1161;-76
2024/03/15 00:54:56;;;;;;;;;;;20.50;57.40;;;;;;1503343;78;1137;-75
2024/03/15 00:56:57;;;;;;;;;;;20.50;57.50;;;;;;1497228;78;1460;-76
2024/03/15 00:58:59;;;;;;;;;;;20.50;58.00;;;;;;1504292;78;774;-77
2024/03/15 01:01:01;;;;;;;;;;;20.50;58.00;;;;;;1494071;78;1938;-77
2024/03/15 01:03:03;;;;;;;;;;;20.50;57.50;;;;;;1504579;78;1227;-76
2024/03/15 01:05:05;;;;;;;;;;;20.50;57.50;;;;;;1491783;78;636;-77
2024/03/15 01:07:07;;;;;;;;;;;20.50;58.00;;;;;;1507736;78;773;-76
2024/03/15 01:09:09;;;;;;;;;;;20.50;58.00;;;;;;1502069;78;761;-77
2024/03/15 01:11:11;;;;;;;;;;;20.40;58.00;;;;;;1494839;78;1616;-78
2024/03/15 01:13:13;;;;;;;;;;;20.50;58.10;;;;;;1488040;78;1108;-76
2024/03/15 01:15:15;;;;;;;;;;;20.50;58.10;;;;;;1485811;78;719;-78
2024/03/15 01:17:17;;;;;;;;;;;20.50;58.10;;;;;;1494570;78;659;-75
2024/03/15 01:19:19;;;;;;;;;;;20.50;58.10;;;;;;1503934;78;1931;-75
2024/03/15 01:21:26;;;;;;;;;;;20.50;58.10;;;;;;1498946;78;672;-78
2024/03/15 01:23:28;;;;;;;;;;;20.50;58.10;;;;;;1499782;78;1434;-76
2024/03/15 01:25:37;;;;;;;;;;;20.50;58.20;;;;;;1506403;78;832;-77
2024/03/15 01:27:39;;;;;;;;;;;20.50;58.10;;;;;;1502924;78;685;-76
2024/03/15 01:29:41;;;;;;;;;;;20.50;58.10;;;;;;1501875;78;746;-77
2024/03/15 01:31:42;;;;;;;;;;;20.50;58.10;;;;;;1493627;78;1111;-75
2024/03/15 01:33:45;;;;;;;;;;;20.50;58.20;;;;;;1498254;78;1183;-77
2024/03/15 01:35:46;;;;;;;;;;;20.50;58.20;;;;;;1495561;78;764;-75
2024/03/15 01:37:48;;;;;;;;;;;20.50;58.20;;;;;;1499248;78;1557;-75
2024/03/15 01:39:50;;;;;;;;;;;20.50;58.20;;;;;;1496226;78;1947;-76
2024/03/15 01:41:52;;;;;;;;;;;20.50;58.20;;;;;;1507805;78;832;-77
2024/03/15 01:43:54;;;;;;;;;;;20.50;58.20;;;;;;1494143;78;1153;-73
2024/03/15 01:45:56;;;;;;;;;;;20.50;58.20;;;;;;1498580;78;748;-75
2024/03/15 01:47:58;;;;;;;;;;;20.50;58.20;;;;;;1491888;78;703;-74
2024/03/15 01:50:00;;;;;;;;;;;20.50;58.20;;;;;;1499791;78;692;-79
2024/03/15 01:52:02;;;;;;;;;;;20.50;58.30;;;;;;1501493;78;1519;-77
2024/03/15 01:54:05;;;;;;;;;;;20.50;58.30;;;;;;1494236;78;1159;-76
2024/03/15 01:56:07;;;;;;;;;;;20.50;58.20;;;;;;1502205;78;676;-76
2024/03/15 01:58:08;;;;;;;;;;;20.50;58.20;;;;;;1498927;78;729;-76
2024/03/15 02:00:13;;;;;;;;;;;20.50;58.30;;;;;;1506247;78;1945;-77
2024/03/15 02:02:14;;;;;;;;;;;20.50;58.30;;;;;;1494023;78;1498;-75
2024/03/15 02:04:16;;;;;;;;;;;20.50;58.30;;;;;;1499226;78;1136;-75
2024/03/15 02:06:21;;;;;;;;;;;20.50;58.30;;;;;;1498985;78;1330;-76
2024/03/15 02:08:22;;;;;;;;;;;20.50;58.30;;;;;;1499751;78;970;-74
2024/03/15 02:10:26;;;;;;;;;;;20.50;58.30;;;;;;1497322;78;747;-78
2024/03/15 02:12:27;;;;;;;;;;;20.50;58.30;;;;;;1492431;78;1543;-77
2024/03/15 02:14:29;;;;;;;;;;;20.50;58.40;;;;;;1498157;78;1094;-77
2024/03/15 02:16:31;;;;;;;;;;;20.50;58.40;;;;;;1497961;78;851;-79
2024/03/15 02:18:35;;;;;;;;;;;20.50;58.40;;;;;;1498015;78;734;-78
2024/03/15 02:20:37;;;;;;;;;;;20.50;58.30;;;;;;1501528;78;1941;-77
2024/03/15 02:22:39;;;;;;;;;;;20.50;58.40;;;;;;1505098;78;1151;-77
2024/03/15 02:24:41;;;;;;;;;;;20.50;58.30;;;;;;1503090;78;804;-78
2024/03/15 02:26:43;;;;;;;;;;;20.50;58.30;;;;;;1496545;78;769;-75
2024/03/15 02:28:45;;;;;;;;;;;20.50;58.40;;;;;;1497020;78;746;-75
2024/03/15 02:30:47;;;;;;;;;;;20.50;58.40;;;;;;1504221;78;792;-76
2024/03/15 02:32:49;;;;;;;;;;;20.50;58.40;;;;;;1498236;78;1153;-74
2024/03/15 02:34:54;;;;;;;;;;;20.50;58.40;;;;;;1489914;78;1576;-74
2024/03/15 02:36:56;;;;;;;;;;;20.40;58.30;;;;;;1513962;78;808;-74
2024/03/15 02:38:58;;;;;;;;;;;20.50;58.40;;;;;;1488471;78;671;-75
2024/03/15 02:41:00;;;;;;;;;;;20.50;58.40;;;;;;1499110;78;1921;-74
2024/03/15 02:43:02;;;;;;;;;;;20.40;58.30;;;;;;1501410;78;1152;-75
2024/03/15 02:45:04;;;;;;;;;;;20.50;58.40;;;;;;1493659;78;697;-77
2024/03/15 02:47:06;;;;;;;;;;;20.50;58.40;;;;;;1498733;78;723;-75
2024/03/15 02:49:08;;;;;;;;;;;20.50;58.40;;;;;;1495136;78;1539;-73
2024/03/15 02:51:13;;;;;;;;;;;20.40;58.30;;;;;;1502835;78;709;-77
2024/03/15 02:53:18;;;;;;;;;;;20.50;58.30;;;;;;1500631;78;1121;-77
2024/03/15 02:55:18;;;;;;;;;;;20.50;58.30;;;;;;1500552;78;1701;-76
2024/03/15 02:57:20;;;;;;;;;;;20.50;58.30;;;;;;1497765;78;727;-76
2024/03/15 02:59:27;;;;;;;;;;;20.50;58.30;;;;;;1499244;78;735;-76
2024/03/15 03:01:26;;;;;;;;;;;20.50;58.30;;;;;;1494968;78;1915;-75
2024/03/15 03:03:27;;;;;;;;;;;20.50;58.30;;;;;;1493407;78;1532;-75
2024/03/15 03:05:30;;;;;;;;;;;20.50;58.30;;;;;;1495043;78;737;-77
2024/03/15 03:07:33;;;;;;;;;;;20.50;58.30;;;;;;1502427;78;609;-75
2024/03/15 03:09:35;;;;;;;;;;;20.50;58.30;;;;;;1500538;78;792;-75
2024/03/15 03:11:37;;;;;;;;;;;20.40;58.30;;;;;;1499754;78;653;-79
2024/03/15 03:13:39;;;;;;;;;;;20.50;58.30;;;;;;1496376;78;1276;-76
2024/03/15 03:15:41;;;;;;;;;;;20.50;58.40;;;;;;1503054;78;788;-78
2024/03/15 03:17:45;;;;;;;;;;;20.40;58.30;;;;;;1498848;78;1622;-78
2024/03/15 03:19:47;;;;;;;;;;;20.40;58.30;;;;;;1492818;78;666;-74
2024/03/15 03:21:50;;;;;;;;;;;20.50;58.40;;;;;;1493323;78;1953;-74
2024/03/15 03:23:56;;;;;;;;;;;20.40;58.30;;;;;;1495486;78;1152;-76
2024/03/15 03:25:55;;;;;;;;;;;20.50;58.40;;;;;;1496841;78;1514;-75
2024/03/15 03:27:57;;;;;;;;;;;20.50;58.30;;;;;;1499847;78;750;-75
2024/03/15 03:29:59;;;;;;;;;;;20.40;58.30;;;;;;1493059;78;1500;-75
2024/03/15 03:32:01;;;;;;;;;;;20.50;58.40;;;;;;1500153;78;726;-76
2024/03/15 03:34:03;;;;;;;;;;;20.50;58.30;;;;;;1505529;78;1525;-75
2024/03/15 03:36:06;;;;;;;;;;;20.40;58.30;;;;;;1505193;78;592;-80
2024/03/15 03:38:08;;;;;;;;;;;20.60;58.40;;;;;;1498851;77;718;-76
2024/03/15 03:40:14;;;;;;;;;;;20.50;58.40;;;;;;1506148;78;1929;-77
2024/03/15 03:42:14;;;;;;;;;;;20.40;58.30;;;;;;1503953;78;1558;-77
2024/03/15 03:44:16;;;;;;;;;;;20.40;58.30;;;;;;1499151;77;1506;-75
2024/03/15 03:46:18;;;;;;;;;;;20.50;58.40;;;;;;1509260;77;720;-75
2024/03/15 03:48:20;;;;;;;;;;;20.40;58.30;;;;;;1499617;78;718;-75
2024/03/15 03:50:22;;;;;;;;;;;20.50;58.40;;;;;;1505906;78;600;-76
2024/03/15 03:52:24;;;;;;;;;;;20.40;58.30;;;;;;1506865;78;722;-77
2024/03/15 03:54:26;;;;;;;;;;;20.50;58.30;;;;;;1510059;78;1149;-79
2024/03/15 03:56:29;;;;;;;;;;;20.50;58.40;;;;;;1503748;77;634;-78
2024/03/15 03:58:31;;;;;;;;;;;20.50;58.40;;;;;;1501743;77;1567;-75
2024/03/15 04:00:34;;;;;;;;;;;20.40;58.30;;;;;;1501650;78;1945;-75
2024/03/15 04:02:36;;;;;;;;;;;20.50;58.40;;;;;;1494677;78;1285;-78
2024/03/15 04:04:38;;;;;;;;;;;20.50;58.40;;;;;;1504709;78;682;-77
2024/03/15 04:06:40;;;;;;;;;;;20.40;58.40;;;;;;1501120;78;755;-77
2024/03/15 04:08:42;;;;;;;;;;;20.40;58.40;;;;;;1496340;78;834;-74
2024/03/15 04:10:44;;;;;;;;;;;20.50;58.40;;;;;;1507254;78;712;-76
2024/03/15 04:12:46;;;;;;;;;;;20.50;58.50;;;;;;1508640;78;1530;-75
2024/03/15 04:14:49;;;;;;;;;;;20.50;58.40;;;;;;1496337;78;726;-75
2024/03/15 04:16:51;;;;;;;;;;;20.50;58.40;;;;;;1510156;77;605;-79
2024/03/15 04:18:53;;;;;;;;;;;20.40;58.40;;;;;;1505516;78;715;-76
2024/03/15 04:20:55;;;;;;;;;;;20.40;58.40;;;;;;1510252;78;1926;-76
2024/03/15 04:22:57;;;;;;;;;;;20.40;58.40;;;;;;1503551;78;1149;-76
2024/03/15 04:24:59;;;;;;;;;;;20.50;58.40;;;;;;1510178;78;732;-77
2024/03/15 04:27:01;;;;;;;;;;;20.50;58.50;;;;;;1501611;78;1508;-77
2024/03/15 04:29:05;;;;;;;;;;;20.40;58.40;;;;;;1507750;78;779;-75
2024/03/15 04:31:06;;;;;;;;;;;20.50;58.50;;;;;;1502008;78;1149;-79
2024/03/15 04:33:08;;;;;;;;;;;20.40;58.40;;;;;;1502437;78;1135;-76
2024/03/15 04:35:13;;;;;;;;;;;20.50;58.50;;;;;;1502821;78;673;-76
2024/03/15 04:37:20;;;;;;;;;;;20.50;58.40;;;;;;1498385;78;1685;-76
2024/03/15 04:39:17;;;;;;;;;;;20.40;58.40;;;;;;1497307;78;1405;-80
2024/03/15 04:41:23;;;;;;;;;;;20.50;58.40;;;;;;1495245;78;1948;-76
2024/03/15 04:43:25;;;;;;;;;;;20.50;58.40;;;;;;1487044;78;1215;-76
2024/03/15 04:45:26;;;;;;;;;;;20.50;58.50;;;;;;1495821;78;730;-77
2024/03/15 04:47:28;;;;;;;;;;;20.40;58.40;;;;;;1493421;78;748;-75
2024/03/15 04:49:30;;;;;;;;;;;20.50;58.40;;;;;;1500584;78;711;-75
2024/03/15 04:51:32;;;;;;;;;;;20.50;58.50;;;;;;1497255;78;726;-76
2024/03/15 04:53:34;;;;;;;;;;;20.40;58.40;;;;;;1493161;78;1140;-76
2024/03/15 04:55:36;;;;;;;;;;;20.40;58.50;;;;;;1498976;78;1451;-75
2024/03/15 04:57:38;;;;;;;;;;;20.50;58.50;;;;;;1500467;78;705;-79
2024/03/15 04:59:40;;;;;;;;;;;20.40;58.50;;;;;;1498600;78;729;-78
2024/03/15 05:01:42;;;;;;;;;;;20.50;58.50;;;;;;1498087;78;1941;-78
2024/03/15 05:03:44;;;;;;;;;;;20.40;58.50;;;;;;1494477;78;1153;-73
2024/03/15 05:05:46;;;;;;;;;;;20.50;58.60;;;;;;1488774;78;924;-73
2024/03/15 05:07:48;;;;;;;;;;;20.40;58.50;;;;;;1502470;78;823;-70
2024/03/15 05:09:49;;;;;;;;;;;20.50;58.60;;;;;;1494268;78;1546;-76
2024/03/15 05:11:51;;;;;;;;;;;20.40;58.60;;;;;;1496974;78;707;-77
2024/03/15 05:13:54;;;;;;;;;;;20.50;58.60;;;;;;1493533;77;1213;-77
2024/03/15 05:15:56;;;;;;;;;;;20.50;58.60;;;;;;1489764;78;794;-77
2024/03/15 05:17:58;;;;;;;;;;;20.40;58.50;;;;;;1497444;78;679;-79
2024/03/15 05:20:00;;;;;;;;;;;20.50;58.60;;;;;;1489127;78;751;-77
2024/03/15 05:22:03;;;;;;;;;;;20.50;58.60;;;;;;1498009;78;1927;-77
2024/03/15 05:24:05;;;;;;;;;;;20.50;58.60;;;;;;1489599;78;1599;-78
2024/03/15 05:26:08;;;;;;;;;;;20.50;58.50;;;;;;1491519;78;721;-78
2024/03/15 05:28:09;;;;;;;;;;;20.40;58.50;;;;;;1497852;78;616;-78
2024/03/15 05:30:17;;;;;;;;;;;20.50;58.60;;;;;;1497093;78;712;-79
2024/03/15 05:32:17;;;;;;;;;;;20.50;58.60;;;;;;1493322;78;1493;-78
2024/03/15 05:34:19;;;;;;;;;;;20.50;58.60;;;;;;1493086;78;1131;-79
2024/03/15 05:36:21;;;;;;;;;;;20.50;58.60;;;;;;1498808;78;797;-78
2024/03/15 05:38:26;;;;;;;;;;;20.60;58.60;;;;;;1489423;78;1252;-78
2024/03/15 05:40:28;;;;;;;;;;;20.50;58.60;;;;;;1490221;78;740;-79
2024/03/15 05:42:31;;;;;;;;;;;20.50;58.60;;;;;;1492517;78;1925;-78
2024/03/15 05:44:33;;;;;;;;;;;20.50;58.60;;;;;;1491632;78;1201;-79
2024/03/15 05:46:35;;;;;;;;;;;20.60;58.60;;;;;;1495732;78;719;-77
2024/03/15 05:48:37;;;;;;;;;;;20.50;58.60;;;;;;1502698;78;699;-78
2024/03/15 05:50:39;;;;;;;;;;;20.60;58.60;;;;;;1498971;78;1524;-73
2024/03/15 05:52:41;;;;;;;;;;;20.50;58.70;;;;;;1492000;78;1121;-76
2024/03/15 05:54:43;;;;;;;;;;;20.50;58.70;;;;;;1501551;78;660;-75
2024/03/15 05:56:45;;;;;;;;;;;20.50;58.70;;;;;;1494631;78;670;-77
2024/03/15 05:58:47;;;;;;;;;;;20.50;58.60;;;;;;1498343;78;656;-76
2024/03/15 06:00:49;;;;;;;;;;;20.50;58.60;;;;;;1497556;78;698;-77
2024/03/15 06:02:52;;;;;;;;;;;20.60;58.60;;;;;;1492663;78;1923;-76
2024/03/15 06:04:53;;;;;;;;;;;20.50;58.60;;;;;;1496466;78;1754;-76
2024/03/15 06:06:55;;;;;;;;;;;20.60;58.20;;;;;;1503264;78;707;-75
2024/03/15 06:08:57;;;;;;;;;;;20.50;58.30;;;;;;1497862;77;729;-76
2024/03/15 06:10:59;;;;;;;;;;;20.50;57.20;;;;;;1497877;78;707;-79
2024/03/15 06:13:01;;;;;;;;;;;20.50;57.50;;;;;;1498650;78;1176;-78
2024/03/15 06:15:04;;;;;;;;;;;20.50;57.50;;;;;;1501736;78;689;-77
2024/03/15 06:17:06;;;;;;;;;;;20.60;58.00;;;;;;1493603;78;803;-77
2024/03/15 06:19:08;;;;;;;;;;;20.50;58.10;;;;;;1500690;78;1287;-77
2024/03/15 06:21:10;;;;;;;;;;;20.50;58.10;;;;;;1495435;78;1927;-77
2024/03/15 06:23:12;;;;;;;;;;;20.50;58.10;;;;;;1492893;78;1150;-76
2024/03/15 06:25:14;;;;;;;;;;;20.50;58.10;;;;;;1495376;78;786;-73
2024/03/15 06:27:16;;;;;;;;;;;20.50;58.10;;;;;;1487078;78;644;-77
2024/03/15 06:29:23;;;;;;;;;;;20.50;58.20;;;;;;1496728;78;727;-75
2024/03/15 06:31:21;;;;;;;;;;;20.50;58.20;;;;;;1511581;78;934;-76
2024/03/15 06:33:28;;;;;;;;;;;20.50;58.20;;;;;;1494510;78;1542;-76
2024/03/15 06:35:31;;;;;;;;;;;20.50;58.40;;;;;;1510530;78;1101;-78
2024/03/15 06:37:33;;;;;;;;;;;20.60;58.30;;;;;;1505625;78;695;-76
2024/03/15 06:41:40;;;;;;;;;;;20.50;58.30;;;;;;1503592;77;1917;-76
2024/03/15 06:43:45;;;;;;;;;;;20.50;58.30;;;;;;1496736;77;1219;-76
2024/03/15 06:48:03;;;;;;;;;;;20.50;58.40;;;;;;1503865;77;1458;-77
2024/03/15 06:50:06;;;;;;;;;;;20.60;58.40;;;;;;1498418;78;1654;-76
2024/03/15 06:54:19;;;;;;;;;;;20.50;58.40;;;;;;1501690;78;1656;-80
2024/03/15 06:56:21;;;;;;;;;;;20.60;58.30;;;;;;1506454;78;675;-79
2024/03/15 06:58:23;;;;;;;;;;;20.60;58.40;;;;;;1510826;78;687;-79
2024/03/15 07:00:29;;;;;;;;;;;20.60;58.40;;;;;;1502264;77;677;-77
2024/03/15 07:02:29;;;;;;;;;;;20.50;58.40;;;;;;1509806;78;1934;-76
2024/03/15 07:04:32;;;;;;;;;;;20.60;58.40;;;;;;1513986;78;1041;-78
2024/03/15 07:06:34;;;;;;;;;;;20.60;58.40;;;;;;1500364;77;767;-78
2024/03/15 07:08:37;;;;;;;;;;;20.60;58.40;;;;;;1502594;78;675;-78
2024/03/15 07:10:39;;;;;;;;;;;20.50;58.40;;;;;;1491803;77;676;-79
2024/03/15 07:12:41;;;;;;;;;;;20.50;58.30;;;;;;1516432;77;1163;-79
2024/03/15 07:14:43;;;;;;;;;;;20.50;58.30;;;;;;1495980;77;766;-78
2024/03/15 07:16:45;;;;;;;;;;;20.50;58.30;;;;;;1499570;78;1669;-77
2024/03/15 07:18:47;;;;;;;;;;;20.50;58.30;;;;;;1509996;78;728;-79
2024/03/15 07:20:50;;;;;;;;;;;20.50;58.20;;;;;;1511482;78;746;-78
2024/03/15 07:22:52;;;;;;;;;;;20.50;58.20;;;;;;1504763;78;1914;-78
2024/03/15 07:24:54;;;;;;;;;;;20.50;58.20;;;;;;1501227;78;739;-79
2024/03/15 07:26:56;;;;;;;;;;;20.50;58.20;;;;;;1498367;78;731;-78
2024/03/15 07:28:58;;;;;;;;;;;20.60;58.20;;;;;;1504783;78;1169;-78
2024/03/15 07:31:00;;;;;;;;;;;20.50;58.20;;;;;;1508864;77;699;-79
2024/03/15 07:33:02;;;;;;;;;;;20.50;58.20;;;;;;1512420;77;1105;-79
2024/03/15 07:35:04;;;;;;;;;;;20.50;58.10;;;;;;1499715;77;1106;-79
2024/03/15 07:37:06;;;;;;;;;;;20.50;58.10;;;;;;1507213;77;695;-77
2024/03/15 07:39:10;;;;;;;;;;;20.50;58.10;;;;;;1509607;78;817;-77
2024/03/15 07:41:12;;;;;;;;;;;20.50;58.10;;;;;;1495872;78;677;-78
2024/03/15 07:43:16;;;;;;;;;;;20.50;58.10;;;;;;1511568;77;1945;-79
2024/03/15 07:45:18;;;;;;;;;;;20.40;58.00;;;;;;1504210;78;761;-79
2024/03/15 07:47:20;;;;;;;;;;;20.50;58.00;;;;;;1505941;78;699;-78
2024/03/15 07:49:23;;;;;;;;;;;20.40;57.90;;;;;;1501048;78;721;-79
2024/03/15 07:51:25;;;;;;;;;;;20.50;57.50;;;;;;1492901;78;705;-79
2024/03/15 07:53:27;;;;;;;;;;;20.50;57.50;;;;;;1498625;78;1130;-78
2024/03/15 07:55:29;;;;;;;;;;;20.40;57.40;;;;;;1506708;77;745;-78
2024/03/15 07:57:32;;;;;;;;;;;20.50;57.50;;;;;;1500716;78;1533;-79
2024/03/15 07:59:34;;;;;;;;;;;20.50;57.40;;;;;;1500610;78;723;-79
2024/03/15 08:01:36;;;;;;;;;;;20.50;57.40;;;;;;1504847;78;785;-76
2024/03/15 08:03:38;;;;;;;;;;;20.50;57.40;;;;;;1494823;78;1965;-78
2024/03/15 08:05:40;;;;;;;;;;;20.50;57.30;;;;;;1514844;78;798;-80
2024/03/15 08:07:41;;;;;;;;;;;20.50;57.30;;;;;;1520842;77;706;-76
2024/03/15 08:09:48;;;;;;;;;;;20.50;57.30;;;;;;1505161;78;775;-78
2024/03/15 08:11:47;;;;;;;;;;;20.50;57.20;;;;;;1507427;78;1545;-77
2024/03/15 08:13:49;;;;;;;;;;;20.50;57.20;;;;;;1497343;78;1169;-78
2024/03/15 08:15:55;;;;;;;;;;;20.40;57.10;;;;;;1508407;78;728;-78
2024/03/15 08:17:57;;;;;;;;;;;20.50;57.10;;;;;;1506320;78;724;-76
2024/03/15 08:19:59;;;;;;;;;;;20.40;57.10;;;;;;1508619;78;756;-79
2024/03/15 08:22:01;;;;;;;;;;;20.50;57.10;;;;;;1512272;77;1937;-79
2024/03/15 08:24:09;;;;;;;;;;;20.50;57.10;;;;;;1507342;78;1155;-79
2024/03/15 08:26:12;;;;;;;;;;;20.50;57.00;;;;;;1498813;78;1554;-79
2024/03/15 08:28:15;;;;;;;;;;;20.40;57.00;;;;;;1509219;78;668;-79
2024/03/15 08:30:17;;;;;;;;;;;20.50;57.10;;;;;;1503188;78;730;-78
2024/03/15 08:32:19;;;;;;;;;;;20.50;57.10;;;;;;1508862;78;747;-78
2024/03/15 08:34:24;;;;;;;;;;;20.50;57.00;;;;;;1508681;77;1084;-78
2024/03/15 08:36:27;;;;;;;;;;;20.40;56.80;;;;;;1503127;78;1031;-78
2024/03/15 08:38:29;;;;;;;;;;;20.50;56.90;;;;;;1495138;78;707;-77
2024/03/15 08:40:31;;;;;;;;;;;20.50;56.90;;;;;;1499058;78;1437;-79
2024/03/15 08:42:33;;;;;;;;;;;20.50;56.80;;;;;;1498165;78;1927;-79
2024/03/15 08:44:36;;;;;;;;;;;20.40;56.80;;;;;;1494875;78;760;-79
2024/03/15 08:46:39;;;;;;;;;;;20.50;56.80;;;;;;1500128;78;687;-77
2024/03/15 08:48:42;;;;;;;;;;;20.40;56.70;;;;;;1500882;78;811;-79
2024/03/15 08:50:46;;;;;;;;;;;20.50;56.80;;;;;;1501788;78;761;-79
2024/03/15 08:52:48;;;;;;;;;;;20.40;56.70;;;;;;1496431;78;1144;-77
2024/03/15 08:54:50;;;;;;;;;;;20.40;56.60;;;;;;1496740;78;1236;-79
2024/03/15 08:56:52;;;;;;;;;;;20.40;56.60;;;;;;1500404;78;766;-79
2024/03/15 08:58:54;;;;;;;;;;;20.40;56.60;;;;;;1500371;78;651;-79
2024/03/15 09:00:56;;;;;;;;;;;20.40;56.50;;;;;;1501769;78;805;-79
2024/03/15 09:02:58;;;;;;;;;;;20.40;56.50;;;;;;1500065;78;1941;-78
2024/03/15 09:05:01;;;;;;;;;;;20.50;56.50;;;;;;1503338;78;765;-79
2024/03/15 09:07:03;;;;;;;;;;;20.40;56.50;;;;;;1504632;78;803;-79
2024/03/15 09:09:12;;;;;;;;;;;20.40;56.50;;;;;;1503532;78;1432;-78
2024/03/15 09:11:14;;;;;;;;;;;20.40;56.50;;;;;;1487761;78;2109;-77
2024/03/15 09:13:18;;;;;;;;;;;20.50;56.50;;;;;;1499209;78;1182;-79
2024/03/15 09:15:22;;;;;;;;;;;20.40;56.40;;;;;;1483845;78;728;-78
2024/03/15 09:17:24;;;;;;;;;;;20.50;56.50;;;;;;1501815;78;743;-78
2024/03/15 09:19:25;;;;;;;;;;;20.40;56.40;;;;;;1498666;78;604;-79
2024/03/15 09:21:28;;;;;;;;;;;20.40;56.30;;;;;;1499766;78;1510;-79
2024/03/15 09:23:29;;;;;;;;;;;20.40;56.30;;;;;;1503301;78;1902;-79
2024/03/15 09:25:32;;;;;;;;;;;20.40;56.30;;;;;;1498121;78;742;-80
2024/03/15 09:27:36;;;;;;;;;;;20.40;56.30;;;;;;1489210;78;723;-79
2024/03/15 09:29:37;;;;;;;;;;;20.40;56.30;;;;;;1502067;78;1114;-80
2024/03/15 09:31:40;;;;;;;;;;;20.40;56.30;;;;;;1488296;78;647;-80
2024/03/15 09:33:43;;;;;;;;;;;20.40;56.10;;;;;;1497966;78;1097;-79
2024/03/15 09:35:46;;;;;;;;;;;20.40;56.10;;;;;;1499184;78;1618;-79
2024/03/15 09:37:51;;;;;;;;;;;20.40;56.10;;;;;;1506240;78;1118;-79
2024/03/15 09:39:53;;;;;;;;;;;20.40;56.10;;;;;;1505893;77;730;-81
2024/03/15 09:41:55;;;;;;;;;;;20.40;56.10;;;;;;1504880;77;734;-83
2024/03/15 09:43:57;;;;;;;;;;;20.30;56.10;;;;;;1507336;77;1942;-80
2024/03/15 09:45:59;;;;;;;;;;;20.40;56.10;;;;;;1505133;77;684;-81
2024/03/15 09:48:01;;;;;;;;;;;20.40;56.00;;;;;;1496238;78;729;-83
2024/03/15 09:50:03;;;;;;;;;;;20.40;56.00;;;;;;1504663;77;1536;-82
2024/03/15 09:52:07;;;;;;;;;;;20.40;56.00;;;;;;1500112;78;628;-82
2024/03/15 09:54:09;;;;;;;;;;;20.40;56.00;;;;;;1505710;77;1103;-81
2024/03/15 09:56:17;;;;;;;;;;;20.40;56.00;;;;;;1493889;78;734;-78
2024/03/15 09:58:22;;;;;;;;;;;20.40;56.00;;;;;;1501385;77;678;-77
2024/03/15 10:00:24;;;;;;;;;;;20.30;55.90;;;;;;1503652;78;670;-79
2024/03/15 10:02:26;;;;;;;;;;;20.40;56.00;;;;;;1511376;78;1936;-79
2024/03/15 10:04:28;;;;;;;;;;;20.40;55.90;;;;;;1503051;78;1318;-79
2024/03/15 10:06:30;;;;;;;;;;;20.40;55.90;;;;;;1509008;78;725;-69
2024/03/15 10:08:32;;;;;;;;;;;20.40;55.90;;;;;;1503765;78;690;-78
2024/03/15 10:10:34;;;;;;;;;;;20.40;55.90;;;;;;1505774;77;723;-78
2024/03/15 10:12:36;;;;;;;;;;;20.40;55.90;;;;;;1511712;77;720;-78
2024/03/15 10:14:37;;;;;;;;;;;20.30;55.90;;;;;;1497035;78;674;-77
2024/03/15 10:16:39;;;;;;;;;;;20.40;55.90;;;;;;1503485;77;642;-80
2024/03/15 10:18:42;;;;;;;;;;;20.30;55.90;;;;;;1508513;78;1544;-79
2024/03/15 10:20:46;;;;;;;;;;;20.30;55.90;;;;;;1499976;78;763;-79
2024/03/15 10:22:51;;;;;;;;;;;20.40;55.90;;;;;;1507332;78;1949;-79
2024/03/15 10:24:52;;;;;;;;;;;20.40;55.90;;;;;;1498185;77;709;-78
2024/03/15 10:26:55;;;;;;;;;;;20.40;55.90;;;;;;1502777;77;678;-77
2024/03/15 10:28:57;;;;;;;;;;;20.40;55.80;;;;;;1500098;77;628;-80
2024/03/15 10:30:59;;;;;;;;;;;20.40;55.90;;;;;;1499362;77;700;-78
2024/03/15 10:33:03;;;;;;;;;;;20.40;55.80;;;;;;1505252;78;1404;-79
2024/03/15 10:35:04;;;;;;;;;;;20.40;55.90;;;;;;1512029;78;1446;-80
2024/03/15 10:37:08;;;;;;;;;;;20.40;55.90;;;;;;1503798;78;1085;-79
2024/03/15 10:39:12;;;;;;;;;;;20.40;55.80;;;;;;1497971;78;712;-78
2024/03/15 10:41:14;;;;;;;;;;;20.40;55.80;;;;;;1496452;78;795;-83
2024/03/15 10:43:15;;;;;;;;;;;20.40;55.90;;;;;;1502693;78;1948;-79
2024/03/15 10:45:19;;;;;;;;;;;20.40;55.80;;;;;;1498189;78;798;-79
2024/03/15 10:47:21;;;;;;;;;;;20.40;55.80;;;;;;1498046;78;1531;-78
2024/03/15 10:49:23;;;;;;;;;;;20.40;55.80;;;;;;1493523;78;739;-80
2024/03/15 10:51:25;;;;;;;;;;;20.40;55.80;;;;;;1490372;78;744;-79
2024/03/15 10:53:27;;;;;;;;;;;20.50;55.90;;;;;;1500240;78;1118;-79
2024/03/15 10:55:29;;;;;;;;;;;20.40;55.80;;;;;;1498220;78;770;-79
2024/03/15 10:57:32;;;;;;;;;;;20.50;55.90;;;;;;1501972;78;726;-79
2024/03/15 10:59:34;;;;;;;;;;;20.40;55.80;;;;;;1496495;78;714;-78
2024/03/15 11:01:37;;;;;;;;;;;20.40;55.80;;;;;;1499936;78;1236;-76
2024/03/15 11:03:41;;;;;;;;;;;20.40;55.80;;;;;;1503721;78;1935;-78
2024/03/15 11:05:43;;;;;;;;;;;20.40;55.80;;;;;;1495611;78;678;-78
2024/03/15 11:07:46;;;;;;;;;;;20.40;55.80;;;;;;1504316;78;729;-79
2024/03/15 11:09:48;;;;;;;;;;;20.40;55.80;;;;;;1500509;78;1858;-78
2024/03/15 11:11:58;;;;;;;;;;;20.50;55.90;;;;;;1495842;78;719;-79
2024/03/15 11:14:01;;;;;;;;;;;20.50;55.90;;;;;;1491925;78;1830;-79
2024/03/15 11:16:20;;;;;;;;;;;20.50;55.90;;;;;;1504876;78;1762;-80
2024/03/15 11:18:22;;;;;;;;;;;20.40;55.80;;;;;;1487154;78;1033;-78
2024/03/15 11:20:24;;;;;;;;;;;20.50;55.90;;;;;;1507123;78;719;-78
2024/03/15 11:22:26;;;;;;;;;;;20.50;55.80;;;;;;1498497;78;738;-81
2024/03/15 11:24:28;;;;;;;;;;;20.50;55.80;;;;;;1501091;78;1961;-77
2024/03/15 11:26:31;;;;;;;;;;;20.50;55.80;;;;;;1472511;79;1224;-77
2024/03/15 11:28:34;;;;;;;;;;;20.60;55.80;;;;;;1489879;78;1439;-79
2024/03/15 11:30:36;;;;;;;;;;;20.50;55.70;;;;;;1493475;79;645;-79
2024/03/15 11:32:38;;;;;;;;;;;20.50;55.70;;;;;;1490251;78;1093;-78
2024/03/15 11:34:40;;;;;;;;;;;20.40;55.70;;;;;;1480286;78;749;-79
2024/03/15 11:36:42;;;;;;;;;;;20.50;55.70;;;;;;1490571;79;700;-77
2024/03/15 11:38:50;;;;;;;;;;;20.50;55.70;;;;;;1473622;79;1491;-78
2024/03/15 11:40:48;;;;;;;;;;;20.50;55.70;;;;;;1529035;77;966;-76
2024/03/15 11:42:50;;;;;;;;;;;20.50;55.70;;;;;;1529437;77;1482;-77
2024/03/15 11:44:51;;;;;;;;;;;20.50;55.70;;;;;;1466177;79;1928;-77
2024/03/15 11:46:53;;;;;;;;;;;20.50;55.50;;;;;;1534394;77;719;-77
2024/03/15 11:48:55;;;;;;;;;;;20.50;55.60;;;;;;1528609;77;615;-77
2024/03/15 11:50:57;;;;;;;;;;;20.50;55.70;;;;;;1530638;77;734;-77
2024/03/15 11:52:59;;;;;;;;;;;20.50;55.70;;;;;;1530031;77;1144;-77
2024/03/15 11:55:01;;;;;;;;;;;20.50;55.60;;;;;;1534798;77;714;-77
2024/03/15 11:57:03;;;;;;;;;;;20.50;55.60;;;;;;1527564;77;1566;-77
2024/03/15 11:59:06;;;;;;;;;;;20.50;55.60;;;;;;1531286;77;734;-77
2024/03/15 12:01:08;;;;;;;;;;;20.50;55.60;;;;;;1533573;77;651;-73
2024/03/15 12:03:11;;;;;;;;;;;20.50;55.60;;;;;;1540622;77;1948;-75
2024/03/15 12:05:12;;;;;;;;;;;20.50;55.50;;;;;;1526217;76;725;-78
2024/03/15 12:07:14;;;;;;;;;;;20.50;55.60;;;;;;1533323;77;805;-75
2024/03/15 12:09:16;;;;;;;;;;;20.50;55.50;;;;;;1518688;76;765;-76
2024/03/15 12:11:19;;;;;;;;;;;20.60;55.50;;;;;;1535008;77;1532;-76
2024/03/15 12:13:22;;;;;;;;;;;20.50;55.50;;;;;;1530144;77;1139;-75
2024/03/15 12:15:29;;;;;;;;;;;20.50;55.50;;;;;;1533550;76;756;-78